Worthington, MN (56187)

2:01 PM CDT on August 31, 2015 (GMT -0500)
Worthignton | | Change Station
CLOSE
Current Station
Personal Weather Station
Location: Worthington, MN
Elevation: 1587 ft
Nearby Weather Stations

Elev 1587 ft 43.56 °N, 95.57 °W | Updated 26 seconds ago

Partly Cloudy
Partly Cloudy
78.8 °F
Feels Like 81 °F
N
21.9
Wind Variable Wind from SW
Gusts 22.0 mph

Today
High -- | Low -- °F
--% Chance of Precip.
Yesterday
High -- | Low -- °F
Precip. -- in
6:44 AM 7:59 PM
Waning Gibbous, 94% visible
Pressure 29.92 in
Visibility 10.0 miles
Clouds Few 2500 ft
Heat Index 81 °F
Dew Point 69 °F
Humidity 72%
Rainfall 0.00 in
Snow Depth Not available.
UV 8 out of 12
Pollen 10.80 out of 12
Air Quality Not available.
Flu Activity Not available.
METAR KOTG 311855Z AUTO 19015G21KT 10SM FEW025 26/19 A2992 RMK AO1
Pressure 29.92 in
Visibility 10.0 miles
Clouds Few 2500 ft
Heat Index 81 °F
Dew Point 69 °F
Humidity 72%
Rainfall 0.00 in
Snow Depth Not available.
UV 8 out of 12
Pollen 10.80 out of 12
Air Quality Not available.
Flu Activity Not available.
METAR KOTG 311855Z AUTO 19015G21KT 10SM FEW025 26/19 A2992 RMK AO1

10-Day Weather Forecast

×

Almanac

Astronomy

Aug. 31, 2015 Rise Set
Actual Time
Civil Twilight
Nautical Twilight
Astronomical Twilight
Moon
Length of Visible Light
Length of Day
Tomorrow will be .
, % of the Moon is Illuminated

Today's Extremes

State Highs State Lows

Community

WunderPhotos

Upload Photos

1,851,340 photos uploaded!

WunderBlogs® & News

Nearby

Air Quality

  Air Quality AQ Index Pollutant
Not available.

Snow Depth

Station Depth Elevation

Earthquake Activity

City Distance Mag. Time & Date
Minimum magnitude displayed is 2.5.

Coastal Water Temperatures

Place Temperature

Stations

Nearby Weather Stations

Station Location Temp. Windchill Dew Point Humidity Wind Precip. Elev Updated Type